Time;durP1;ratioP1;P1;durP2;ratioP2;P2;SDS_P1;SDS_P2;PMS_P1;PMS_P2;Temp;Humidity;BMP_temperature;BMP_pressure;BME280_temperature;BME280_humidity;BME280_pressure;Samples;Min_cycle;Max_cycle;Signal;HPM_P1;HPM_P2
2023/01/25 00:01:02;;;;;;;10.45;5.70;;;3.20;82.90;;;;;;5081439;28;20117;-61
2023/01/25 00:03:30;;;;;;;9.60;5.70;;;3.20;82.90;;;;;;5086268;28;20087;-61
2023/01/25 00:06:00;;;;;;;10.32;5.55;;;3.20;83.00;;;;;;5085693;28;20048;-71
2023/01/25 00:08:31;;;;;;;10.60;5.15;;;3.20;83.10;;;;;;5081035;28;20158;-72
2023/01/25 00:11:00;;;;;;;10.63;5.32;;;3.20;83.00;;;;;;5081216;28;20047;-64
2023/01/25 00:13:26;;;;;;;11.43;5.07;;;3.20;83.10;;;;;;5081283;28;20044;-64
2023/01/25 00:15:53;;;;;;;9.65;5.18;;;3.20;83.10;;;;;;5086737;28;20097;-71
2023/01/25 00:18:21;;;;;;;11.43;6.13;;;3.20;83.10;;;;;;5086331;28;20047;-70
2023/01/25 00:20:47;;;;;;;9.45;5.47;;;3.20;83.20;;;;;;5084961;28;20127;-67
2023/01/25 00:23:15;;;;;;;8.98;5.78;;;3.20;83.10;;;;;;5084420;28;20040;-69
2023/01/25 00:25:43;;;;;;;10.80;5.85;;;3.20;83.10;;;;;;5090319;28;20052;-59
2023/01/25 00:28:10;;;;;;;10.98;5.85;;;3.20;83.10;;;;;;5089810;28;20044;-60
2023/01/25 00:30:36;;;;;;;9.60;5.20;;;3.20;83.10;;;;;;5089956;28;20052;-72
2023/01/25 00:33:27;;;;;;;10.10;5.68;;;3.20;83.20;;;;;;5072057;28;20534;-71
2023/01/25 00:35:57;;;;;;;9.23;4.93;;;3.20;83.10;;;;;;5090383;28;20060;-68
2023/01/25 00:38:29;;;;;;;8.80;5.43;;;3.20;83.10;;;;;;5091002;28;20395;-69
2023/01/25 00:40:58;;;;;;;9.13;5.35;;;3.30;83.00;;;;;;5062479;28;20051;-59
2023/01/25 00:43:26;;;;;;;10.95;5.60;;;3.20;83.00;;;;;;5090106;28;20108;-58
2023/01/25 00:45:52;;;;;;;8.82;5.05;;;3.20;83.10;;;;;;5090217;28;20044;-62
2023/01/25 00:48:19;;;;;;;9.15;5.57;;;3.20;83.10;;;;;;5089713;28;20891;-61
2023/01/25 00:50:46;;;;;;;9.63;5.20;;;3.20;83.20;;;;;;5091560;28;20048;-64
2023/01/25 00:53:17;;;;;;;10.27;5.35;;;3.20;83.20;;;;;;5071443;28;20490;-65
2023/01/25 00:55:51;;;;;;;11.45;6.25;;;3.20;83.30;;;;;;5089655;28;20048;-61
2023/01/25 00:58:20;;;;;;;9.88;5.28;;;3.20;83.20;;;;;;5089320;28;20059;-62
2023/01/25 01:00:46;;;;;;;9.98;5.18;;;3.20;83.30;;;;;;5072186;28;20055;-62
2023/01/25 01:03:13;;;;;;;10.13;5.10;;;3.20;83.30;;;;;;5089047;28;20044;-61
2023/01/25 01:05:40;;;;;;;10.82;5.53;;;3.20;83.30;;;;;;5088191;28;20040;-69
2023/01/25 01:08:07;;;;;;;10.63;5.55;;;3.20;83.30;;;;;;5088765;28;20052;-70
2023/01/25 01:10:34;;;;;;;11.23;5.57;;;3.20;83.20;;;;;;5089641;28;20059;-61
2023/01/25 01:13:01;;;;;;;10.68;5.57;;;3.20;83.30;;;;;;5073202;28;20040;-60
2023/01/25 01:15:29;;;;;;;8.88;5.20;;;3.20;83.30;;;;;;5090956;28;20517;-61
2023/01/25 01:17:56;;;;;;;11.80;6.43;;;3.20;83.30;;;;;;5089966;28;20105;-62
2023/01/25 01:20:23;;;;;;;10.30;5.75;;;3.20;83.20;;;;;;5089857;28;20101;-62
2023/01/25 01:22:54;;;;;;;10.77;5.80;;;3.20;83.20;;;;;;5072754;28;20122;-62
2023/01/25 01:25:21;;;;;;;8.85;5.70;;;3.20;83.20;;;;;;5089670;28;20049;-60
2023/01/25 01:27:48;;;;;;;12.43;5.88;;;3.20;83.20;;;;;;5085012;28;20045;-59
2023/01/25 01:30:15;;;;;;;10.43;5.50;;;3.20;83.20;;;;;;5070094;28;20044;-62
2023/01/25 01:32:46;;;;;;;11.02;5.88;;;3.20;83.20;;;;;;5067149;28;20056;-61
2023/01/25 01:35:12;;;;;;;;;;;3.20;83.30;;;;;;5065389;28;20067;-60
2023/01/25 01:37:42;;;;;;;12.10;6.13;;;3.20;83.40;;;;;;5069479;28;20268;-61
2023/01/25 01:40:14;;;;;;;11.02;5.65;;;3.20;83.20;;;;;;5069521;28;20044;-61
2023/01/25 01:42:56;;;;;;;10.48;6.47;;;3.10;83.20;;;;;;5069932;28;20051;-60
2023/01/25 01:45:50;;;;;;;13.45;6.45;;;3.20;83.30;;;;;;5067276;28;20049;-61
2023/01/25 01:48:33;;;;;;;9.85;5.38;;;3.10;83.20;;;;;;5061384;28;20415;-61
2023/01/25 01:51:03;;;;;;;10.02;6.03;;;3.10;83.30;;;;;;5069079;28;20048;-60
2023/01/25 01:53:35;;;;;;;10.88;6.10;;;3.10;83.30;;;;;;5068410;28;20049;-60
2023/01/25 01:56:07;;;;;;;10.25;5.75;;;3.20;83.30;;;;;;5070451;28;20075;-60
2023/01/25 01:58:35;;;;;;;12.13;6.05;;;3.20;83.30;;;;;;5067258;28;20487;-60
2023/01/25 02:01:02;;;;;;;9.95;5.78;;;3.10;83.20;;;;;;5058392;28;20048;-60
2023/01/25 02:03:31;;;;;;;11.13;6.32;;;3.10;83.20;;;;;;5064663;28;20506;-59
2023/01/25 02:06:03;;;;;;;12.18;6.28;;;3.10;83.20;;;;;;5060794;28;20040;-60
2023/01/25 02:08:35;;;;;;;11.57;6.20;;;3.10;83.30;;;;;;5084641;28;20135;-60
2023/01/25 02:11:04;;;;;;;10.52;5.80;;;3.10;83.30;;;;;;5061667;28;20044;-60
2023/01/25 02:13:32;;;;;;;12.43;5.90;;;3.10;83.30;;;;;;5066980;28;20135;-60
2023/01/25 02:15:59;;;;;;;11.73;6.30;;;3.10;83.40;;;;;;5066560;28;20392;-60
2023/01/25 02:18:26;;;;;;;11.38;5.85;;;3.10;83.40;;;;;;5065658;28;20044;-59
2023/01/25 02:20:57;;;;;;;13.55;6.85;;;3.10;83.30;;;;;;5060589;28;20528;-60
2023/01/25 02:23:30;;;;;;;9.88;5.63;;;3.10;83.50;;;;;;5068854;28;20056;-60
2023/01/25 02:26:03;;;;;;;10.55;6.38;;;3.10;83.50;;;;;;5066563;28;20051;-61
2023/01/25 02:28:34;;;;;;;10.98;6.18;;;3.10;83.40;;;;;;5067519;28;20053;-60
2023/01/25 02:31:01;;;;;;;10.43;5.88;;;3.10;83.40;;;;;;5062520;28;20632;-61
2023/01/25 02:33:29;;;;;;;13.15;6.25;;;3.10;83.40;;;;;;5081301;28;20502;-60
2023/01/25 02:36:00;;;;;;;12.95;6.65;;;3.10;83.30;;;;;;5074445;28;20043;-60
2023/01/25 02:38:32;;;;;;;9.90;5.65;;;3.10;83.30;;;;;;5087443;28;20052;-60
2023/01/25 02:41:04;;;;;;;12.02;6.15;;;3.10;83.40;;;;;;5069964;28;20043;-60
2023/01/25 02:43:34;;;;;;;10.90;5.93;;;3.10;83.50;;;;;;5069521;28;20049;-60
2023/01/25 02:46:04;;;;;;;;;;;3.10;83.50;;;;;;5087590;28;20071;-63
2023/01/25 02:48:30;;;;;;;11.98;6.45;;;3.10;83.50;;;;;;5087912;28;19951;-60
2023/01/25 02:50:57;;;;;;;9.88;5.93;;;3.10;83.50;;;;;;5087541;28;20056;-61
2023/01/25 02:53:24;;;;;;;11.63;6.10;;;3.10;83.60;;;;;;5087668;28;20048;-61
2023/01/25 02:55:51;;;;;;;11.73;6.00;;;3.10;83.50;;;;;;5068088;28;20051;-61
2023/01/25 02:58:19;;;;;;;12.98;6.00;;;3.10;83.40;;;;;;5088845;28;20048;-60
2023/01/25 03:00:46;;;;;;;10.82;6.35;;;3.10;83.40;;;;;;5087076;28;20047;-61
2023/01/25 03:03:13;;;;;;;11.23;6.03;;;3.00;83.70;;;;;;5058200;28;20048;-60
2023/01/25 03:05:40;;;;;;;10.80;5.78;;;3.00;83.60;;;;;;5062520;28;20044;-59
2023/01/25 03:08:07;;;;;;;10.90;5.97;;;3.00;83.60;;;;;;5087053;28;20033;-60
2023/01/25 03:10:34;;;;;;;10.80;5.93;;;3.00;83.50;;;;;;5085125;28;20052;-61
2023/01/25 03:13:01;;;;;;;11.27;6.40;;;3.00;83.60;;;;;;5062320;28;20079;-59
2023/01/25 03:15:30;;;;;;;10.90;5.88;;;3.00;83.60;;;;;;5065320;28;20083;-61
2023/01/25 03:17:57;;;;;;;11.15;6.10;;;3.10;83.60;;;;;;5067019;28;20052;-60
2023/01/25 03:20:24;;;;;;;11.15;5.60;;;3.10;83.50;;;;;;5084737;28;20048;-61
2023/01/25 03:22:53;;;;;;;11.25;6.53;;;3.10;83.50;;;;;;5067440;28;20044;-60
2023/01/25 03:25:20;;;;;;;9.80;6.25;;;3.10;83.50;;;;;;5087407;28;20483;-60
2023/01/25 03:27:55;;;;;;;12.27;6.03;;;3.10;83.50;;;;;;5068749;28;20064;-59
2023/01/25 03:30:22;;;;;;;10.77;6.35;;;3.00;83.50;;;;;;5054773;28;20063;-72
2023/01/25 03:32:51;;;;;;;10.95;6.40;;;3.00;83.60;;;;;;5060674;28;20403;-71
2023/01/25 03:35:19;;;;;;;10.75;6.28;;;3.00;83.70;;;;;;5063450;28;20501;-72
2023/01/25 03:37:47;;;;;;;12.52;6.18;;;3.00;83.50;;;;;;5064828;28;20048;-71
2023/01/25 03:40:14;;;;;;;11.60;6.63;;;3.10;83.50;;;;;;5058908;28;20044;-72
2023/01/25 03:42:45;;;;;;;11.48;6.40;;;3.10;83.50;;;;;;5067155;28;20055;-70
2023/01/25 03:45:13;;;;;;;10.85;6.10;;;3.00;83.60;;;;;;5067505;28;20067;-72
2023/01/25 03:47:40;;;;;;;11.73;6.03;;;3.00;83.60;;;;;;5086301;28;20462;-72
2023/01/25 03:50:11;;;;;;;11.07;6.00;;;3.00;83.50;;;;;;5069161;28;20048;-72
2023/01/25 03:52:41;;;;;;;10.07;5.53;;;3.00;83.60;;;;;;5059987;28;20048;-72
2023/01/25 03:55:09;;;;;;;10.50;5.35;;;3.00;83.50;;;;;;5085342;28;20142;-74
2023/01/25 03:57:40;;;;;;;10.35;5.43;;;3.00;83.50;;;;;;5068256;28;20044;-72
2023/01/25 04:00:11;;;;;;;10.65;6.25;;;3.00;83.40;;;;;;5055505;28;20188;-72
2023/01/25 04:02:47;;;;;;;;;;;3.00;83.40;;;;;;5063475;28;20110;-72
2023/01/25 04:05:19;;;;;;;10.68;5.60;;;2.90;83.40;;;;;;5065793;28;19954;-73
2023/01/25 04:07:46;;;;;;;10.02;5.75;;;3.00;83.40;;;;;;5066802;28;20048;-73
2023/01/25 04:10:15;;;;;;;11.45;6.05;;;3.00;83.40;;;;;;5063064;28;20040;-72
2023/01/25 04:12:45;;;;;;;11.93;6.20;;;3.00;83.50;;;;;;5061186;28;20040;-72
2023/01/25 04:15:12;;;;;;;10.35;5.57;;;2.90;83.50;;;;;;5085644;28;20048;-73
2023/01/25 04:17:39;;;;;;;11.43;5.95;;;2.90;83.50;;;;;;5084695;28;20139;-71
2023/01/25 04:20:17;;;;;;;10.70;5.45;;;2.90;83.50;;;;;;5063035;28;20040;-70
2023/01/25 04:22:45;;;;;;;9.93;5.55;;;2.90;83.60;;;;;;5067940;28;20078;-71
2023/01/25 04:25:14;;;;;;;10.93;5.93;;;3.00;83.40;;;;;;5061735;28;20044;-71
2023/01/25 04:27:47;;;;;;;11.02;5.60;;;3.00;83.50;;;;;;5063972;28;20051;-72
2023/01/25 04:30:16;;;;;;;10.85;5.60;;;2.90;83.50;;;;;;5068039;28;20040;-73
2023/01/25 04:32:45;;;;;;;9.75;5.78;;;2.90;83.40;;;;;;5085454;28;20059;-71
2023/01/25 04:35:22;;;;;;;12.80;6.03;;;2.90;83.30;;;;;;5062576;28;20135;-71
2023/01/25 04:37:54;;;;;;;11.43;5.45;;;2.90;83.30;;;;;;5068123;28;20044;-71
2023/01/25 04:40:24;;;;;;;;;;;2.90;83.40;;;;;;5067766;28;20040;-72
2023/01/25 04:42:50;;;;;;;10.95;5.05;;;2.90;83.30;;;;;;5066151;28;19927;-72
2023/01/25 04:45:17;;;;;;;9.95;5.20;;;2.90;83.20;;;;;;5079824;28;20088;-69
2023/01/25 04:47:44;;;;;;;9.63;5.45;;;2.90;83.40;;;;;;5086749;28;20048;-71
2023/01/25 04:50:11;;;;;;;10.57;5.18;;;2.90;83.30;;;;;;5062990;28;20573;-72
2023/01/25 04:52:39;;;;;;;8.90;5.38;;;2.90;83.30;;;;;;5086024;28;20829;-72
2023/01/25 04:55:07;;;;;;;8.07;4.65;;;2.80;83.30;;;;;;5068218;28;20051;-72
2023/01/25 04:57:39;;;;;;;9.95;5.30;;;2.80;83.30;;;;;;5059215;28;20048;-72
2023/01/25 05:00:10;;;;;;;10.38;5.30;;;2.80;83.20;;;;;;5084156;28;20133;-71
2023/01/25 05:02:38;;;;;;;10.65;5.00;;;2.80;83.20;;;;;;5063976;28;20113;-72
2023/01/25 05:05:07;;;;;;;10.32;4.85;;;2.80;83.10;;;;;;5067416;28;20048;-72
2023/01/25 05:07:34;;;;;;;9.15;4.70;;;2.80;83.10;;;;;;5067561;28;20056;-72
2023/01/25 05:10:03;;;;;;;9.55;4.65;;;2.80;83.10;;;;;;5085308;28;20056;-72
2023/01/25 05:12:30;;;;;;;8.95;4.47;;;2.70;83.10;;;;;;5072177;28;20135;-73
2023/01/25 05:15:02;;;;;;;9.05;4.70;;;2.70;83.10;;;;;;5067695;28;20672;-71
2023/01/25 05:17:29;;;;;;;8.60;4.80;;;2.70;83.10;;;;;;5070393;28;20060;-73
2023/01/25 05:19:56;;;;;;;9.23;4.57;;;2.70;83.20;;;;;;5064671;28;20048;-72
2023/01/25 05:22:23;;;;;;;8.55;4.78;;;2.60;83.20;;;;;;5088923;28;20044;-72
2023/01/25 05:24:53;;;;;;;8.95;4.47;;;2.60;83.30;;;;;;5072116;28;20068;-73
2023/01/25 05:27:22;;;;;;;9.60;4.63;;;2.70;83.20;;;;;;5062828;28;20086;-72
2023/01/25 05:29:54;;;;;;;9.98;4.50;;;2.70;83.20;;;;;;5090357;28;20063;-72
2023/01/25 05:32:50;;;;;;;8.90;4.90;;;2.70;83.30;;;;;;5070168;28;20113;-61
2023/01/25 05:35:18;;;;;;;8.77;4.35;;;2.70;83.30;;;;;;5070412;28;20671;-61
2023/01/25 05:37:46;;;;;;;9.05;4.95;;;2.60;83.40;;;;;;5072742;28;20097;-61
2023/01/25 05:40:21;;;;;;;9.00;4.50;;;2.60;83.40;;;;;;5070426;28;20075;-62
2023/01/25 05:42:55;;;;;;;8.57;4.80;;;2.60;83.40;;;;;;5073222;28;20192;-63
2023/01/25 05:45:24;;;;;;;9.98;5.20;;;2.60;83.50;;;;;;5070652;28;20821;-68
2023/01/25 05:47:54;;;;;;;9.82;4.82;;;2.60;83.50;;;;;;5058611;28;20119;-69
2023/01/25 05:50:21;;;;;;;7.82;4.20;;;2.60;83.60;;;;;;5087382;28;20052;-62
2023/01/25 05:52:58;;;;;;;9.90;4.95;;;2.60;83.50;;;;;;5071042;28;20391;-61
2023/01/25 05:55:25;;;;;;;10.10;4.90;;;2.60;83.50;;;;;;5070421;28;20051;-61
2023/01/25 05:57:56;;;;;;;9.63;4.85;;;2.60;83.40;;;;;;5065347;28;20426;-61
2023/01/25 06:00:23;;;;;;;9.00;4.90;;;2.70;83.30;;;;;;5061850;28;20051;-60
2023/01/25 06:02:50;;;;;;;9.88;5.22;;;2.60;83.30;;;;;;5069441;28;20064;-60
2023/01/25 06:05:22;;;;;;;9.77;5.00;;;2.60;83.30;;;;;;5065882;28;20387;-63
2023/01/25 06:07:49;;;;;;;11.02;5.25;;;2.70;83.30;;;;;;5065618;28;20044;-63
2023/01/25 06:10:18;;;;;;;9.18;4.60;;;2.60;83.40;;;;;;5070749;28;20410;-65
2023/01/25 06:12:47;;;;;;;11.50;5.75;;;2.60;83.40;;;;;;5069665;28;20051;-64
2023/01/25 06:15:15;;;;;;;10.35;5.03;;;2.60;83.30;;;;;;5069450;28;20044;-65
2023/01/25 06:17:42;;;;;;;9.75;5.30;;;2.60;83.40;;;;;;5071339;28;20074;-65
2023/01/25 06:20:39;;;;;;;10.32;5.88;;;2.60;83.40;;;;;;5053889;28;20051;-65
2023/01/25 06:23:05;;;;;;;9.88;5.53;;;2.60;83.40;;;;;;5088406;28;20168;-64
2023/01/25 06:25:32;;;;;;;10.75;5.07;;;2.60;83.50;;;;;;5089646;28;20055;-61
2023/01/25 06:27:59;;;;;;;11.63;5.35;;;2.60;83.50;;;;;;5088152;28;20056;-61
2023/01/25 06:30:27;;;;;;;9.25;4.88;;;2.60;83.50;;;;;;5087036;28;20040;-60
2023/01/25 06:32:54;;;;;;;10.88;5.70;;;2.70;83.50;;;;;;5089345;28;20078;-59
2023/01/25 06:35:24;;;;;;;11.68;5.78;;;2.70;83.50;;;;;;5087590;28;20048;-64
2023/01/25 06:37:51;;;;;;;12.80;6.00;;;2.70;83.40;;;;;;5086914;28;20048;-62
2023/01/25 06:40:17;;;;;;;12.07;5.75;;;2.60;83.50;;;;;;5086030;28;20064;-62
2023/01/25 06:42:45;;;;;;;11.02;5.75;;;2.50;83.60;;;;;;5088056;28;20063;-62
2023/01/25 06:45:12;;;;;;;12.40;5.93;;;2.60;83.70;;;;;;5087981;28;20471;-61
2023/01/25 06:47:40;;;;;;;10.35;5.53;;;2.60;83.80;;;;;;5088280;28;20052;-72
2023/01/25 06:50:08;;;;;;;13.48;6.28;;;2.60;83.70;;;;;;5088074;28;20055;-70
2023/01/25 06:52:35;;;;;;;12.25;6.55;;;2.60;83.70;;;;;;5088251;28;20063;-72
2023/01/25 06:55:03;;;;;;;13.38;6.85;;;2.60;83.70;;;;;;5088073;28;20044;-68
2023/01/25 06:57:29;;;;;;;11.85;6.43;;;2.60;83.90;;;;;;5086712;28;20472;-61
2023/01/25 06:59:56;;;;;;;12.50;6.75;;;2.60;84.00;;;;;;5087978;28;20056;-61
2023/01/25 07:02:23;;;;;;;13.18;6.38;;;2.50;83.90;;;;;;5087552;28;20055;-59
2023/01/25 07:04:51;;;;;;;12.85;6.03;;;2.60;83.80;;;;;;5088968;28;20048;-59
2023/01/25 07:07:18;;;;;;;14.05;7.20;;;2.60;83.80;;;;;;5087455;28;20055;-69
2023/01/25 07:09:45;;;;;;;12.57;6.70;;;2.50;83.90;;;;;;5087632;28;20530;-70
2023/01/25 07:12:12;;;;;;;13.85;7.47;;;2.50;83.90;;;;;;5086640;28;20048;-65
2023/01/25 07:14:39;;;;;;;13.52;7.72;;;2.60;83.90;;;;;;5087043;28;20051;-66
2023/01/25 07:17:06;;;;;;;12.25;7.13;;;2.60;83.90;;;;;;5086402;28;20039;-59
2023/01/25 07:19:32;;;;;;;10.70;6.63;;;2.60;83.80;;;;;;5087711;28;20047;-59
2023/01/25 07:22:01;;;;;;;12.90;7.05;;;2.60;83.80;;;;;;5088389;28;20478;-65
2023/01/25 07:24:28;;;;;;;12.38;6.50;;;2.60;83.70;;;;;;5087574;28;20102;-65
2023/01/25 07:26:55;;;;;;;13.50;6.35;;;2.60;83.70;;;;;;5087095;28;20044;-59
2023/01/25 07:29:22;;;;;;;14.18;7.47;;;2.60;83.70;;;;;;5064632;28;21371;-60
2023/01/25 07:31:49;;;;;;;10.27;5.95;;;2.60;83.80;;;;;;5083868;28;20051;-62
2023/01/25 07:34:16;;;;;;;12.13;6.20;;;2.70;83.70;;;;;;5086773;28;20135;-61
2023/01/25 07:36:43;;;;;;;13.48;6.82;;;2.60;83.80;;;;;;5087113;28;20050;-69
2023/01/25 07:39:11;;;;;;;12.75;6.78;;;2.60;83.80;;;;;;5088556;28;20048;-69
2023/01/25 07:41:39;;;;;;;13.35;6.95;;;2.60;83.90;;;;;;5087755;28;20137;-71
2023/01/25 07:44:06;;;;;;;12.90;6.25;;;2.60;83.90;;;;;;5068622;28;20051;-71
2023/01/25 07:46:37;;;;;;;14.40;6.70;;;2.60;84.00;;;;;;5068398;28;20048;-65
2023/01/25 07:49:04;;;;;;;13.25;6.38;;;2.60;84.00;;;;;;5085006;28;20048;-64
2023/01/25 07:51:31;;;;;;;13.43;7.10;;;2.50;84.00;;;;;;5089089;28;20048;-62
2023/01/25 07:54:00;;;;;;;13.23;6.75;;;2.50;84.00;;;;;;5086193;28;20055;-61
2023/01/25 07:56:31;;;;;;;12.48;6.65;;;2.60;84.10;;;;;;5086461;28;20071;-64
2023/01/25 07:59:01;;;;;;;12.38;6.63;;;2.50;84.20;;;;;;5082988;28;20044;-62
2023/01/25 08:01:30;;;;;;;12.45;6.40;;;2.60;84.10;;;;;;5084984;28;20059;-61
2023/01/25 08:03:58;;;;;;;13.50;6.78;;;2.60;84.00;;;;;;5086936;28;20125;-61
2023/01/25 08:06:29;;;;;;;12.40;6.35;;;2.50;84.00;;;;;;5086597;28;20044;-73
2023/01/25 08:08:57;;;;;;;13.90;6.68;;;2.50;84.00;;;;;;5087919;28;20252;-71
2023/01/25 08:11:26;;;;;;;13.70;6.72;;;2.60;84.00;;;;;;5086209;28;20047;-61
2023/01/25 08:13:54;;;;;;;12.85;6.60;;;2.60;83.90;;;;;;5086773;28;20486;-62
2023/01/25 08:16:23;;;;;;;13.43;6.68;;;2.60;83.80;;;;;;5084373;28;20071;-65
2023/01/25 08:18:52;;;;;;;11.43;6.53;;;2.60;83.90;;;;;;5088077;28;20578;-65
2023/01/25 08:21:19;;;;;;;13.30;7.00;;;2.60;84.00;;;;;;5087619;28;20062;-60
2023/01/25 08:23:46;;;;;;;14.32;7.47;;;2.60;84.00;;;;;;5084516;28;20485;-59
2023/01/25 08:26:15;;;;;;;13.43;6.68;;;2.60;84.00;;;;;;5085810;28;20040;-61
2023/01/25 08:28:43;;;;;;;13.43;6.57;;;2.60;84.00;;;;;;5086343;28;20066;-61
2023/01/25 08:31:14;;;;;;;10.85;6.40;;;2.60;83.90;;;;;;5085754;28;20060;-71
2023/01/25 08:33:42;;;;;;;13.38;6.60;;;2.50;84.00;;;;;;5079676;28;20051;-72
2023/01/25 08:36:10;;;;;;;12.43;7.05;;;2.50;84.10;;;;;;5085844;28;20551;-68
2023/01/25 08:38:38;;;;;;;13.50;7.38;;;2.50;84.00;;;;;;5088145;28;20040;-69
2023/01/25 08:41:05;;;;;;;12.55;7.00;;;2.60;83.90;;;;;;5085672;28;20040;-60
2023/01/25 08:43:33;;;;;;;13.60;7.07;;;2.60;83.90;;;;;;5087907;28;20044;-59
2023/01/25 08:46:00;;;;;;;12.45;6.20;;;2.60;83.90;;;;;;5091077;28;20098;-60
2023/01/25 08:48:29;;;;;;;13.25;6.68;;;2.60;83.90;;;;;;5090629;28;20056;-59
2023/01/25 08:50:56;;;;;;;12.43;6.30;;;2.60;83.90;;;;;;5090887;28;20052;-58
2023/01/25 08:53:23;;;;;;;14.10;7.32;;;2.60;83.90;;;;;;5090753;28;20059;-60
2023/01/25 08:55:50;;;;;;;15.00;7.10;;;2.60;83.90;;;;;;5089927;28;20062;-61
2023/01/25 08:58:18;;;;;;;13.25;7.03;;;2.70;83.80;;;;;;5089826;28;20123;-59
2023/01/25 09:00:46;;;;;;;12.40;6.13;;;2.70;83.70;;;;;;5090105;28;20117;-65
2023/01/25 09:03:13;;;;;;;13.13;6.68;;;2.70;83.70;;;;;;5088396;28;20075;-65
2023/01/25 09:05:42;;;;;;;13.13;6.93;;;2.70;83.70;;;;;;5091110;28;20055;-65
2023/01/25 09:08:10;;;;;;;11.50;6.13;;;2.70;83.70;;;;;;5087286;28;20068;-65
2023/01/25 09:10:37;;;;;;;12.30;6.00;;;2.60;83.60;;;;;;5091472;28;20048;-65
2023/01/25 09:13:04;;;;;;;13.90;6.72;;;2.60;83.70;;;;;;5090102;28;20055;-65
2023/01/25 09:15:30;;;;;;;14.30;6.60;;;2.70;83.70;;;;;;5090592;28;20548;-64
2023/01/25 09:17:57;;;;;;;13.73;7.15;;;2.70;83.70;;;;;;5088794;28;20932;-65
2023/01/25 09:20:25;;;;;;;14.13;7.10;;;2.70;83.60;;;;;;5089319;28;20047;-65
2023/01/25 09:22:54;;;;;;;13.85;7.40;;;2.70;83.70;;;;;;5089708;28;20139;-64
2023/01/25 09:25:21;;;;;;;14.80;7.38;;;2.60;83.80;;;;;;5089655;28;20048;-64
2023/01/25 09:27:49;;;;;;;14.05;7.40;;;2.60;83.80;;;;;;5088669;28;20066;-64
2023/01/25 09:30:16;;;;;;;13.32;7.30;;;2.60;84.00;;;;;;5089792;28;20048;-65
2023/01/25 09:32:43;;;;;;;13.82;6.78;;;2.70;84.10;;;;;;5071305;28;20056;-65
2023/01/25 09:35:10;;;;;;;12.48;6.93;;;2.70;83.80;;;;;;5088953;28;20139;-66
2023/01/25 09:37:37;;;;;;;15.50;7.45;;;2.70;83.60;;;;;;5090037;28;20521;-64
2023/01/25 09:40:19;;;;;;;13.55;6.97;;;2.60;83.70;;;;;;5090337;28;20047;-66
2023/01/25 09:42:59;;;;;;;15.45;7.40;;;2.70;83.80;;;;;;5089359;28;20113;-65
2023/01/25 09:45:30;;;;;;;;;;;2.70;83.80;;;;;;5090649;28;20047;-65
2023/01/25 09:48:04;;;;;;;11.45;6.28;;;2.70;83.70;;;;;;5084509;28;19920;-64
2023/01/25 09:50:37;;;;;;;16.65;6.88;;;2.70;83.70;;;;;;5089707;28;20048;-64
2023/01/25 09:53:20;;;;;;;13.00;6.47;;;2.70;83.60;;;;;;5088618;28;20051;-64
2023/01/25 09:55:53;;;;;;;13.23;7.43;;;2.70;83.50;;;;;;5084242;28;20097;-60
2023/01/25 09:58:24;;;;;;;13.45;7.47;;;2.70;83.60;;;;;;5089133;28;20071;-60
2023/01/25 10:00:55;;;;;;;13.05;6.78;;;2.80;83.50;;;;;;5088057;28;20048;-60
2023/01/25 10:03:27;;;;;;;14.57;7.47;;;2.80;83.50;;;;;;5088097;28;20471;-60
2023/01/25 10:05:58;;;;;;;13.20;6.82;;;2.70;83.40;;;;;;5084592;28;20514;-64
2023/01/25 10:08:31;;;;;;;12.85;7.03;;;2.70;83.50;;;;;;5088670;28;20047;-64
2023/01/25 10:11:04;;;;;;;11.63;6.07;;;2.80;83.50;;;;;;5088555;28;20044;-71
2023/01/25 10:13:31;;;;;;;13.05;6.05;;;2.80;83.40;;;;;;5086341;28;20052;-72
2023/01/25 10:16:04;;;;;;;12.75;6.68;;;2.70;83.30;;;;;;5090505;28;20963;-72
2023/01/25 10:18:37;;;;;;;12.55;6.25;;;2.70;83.40;;;;;;5088705;28;20068;-71
2023/01/25 10:21:08;;;;;;;14.25;6.68;;;2.70;83.30;;;;;;5089545;28;20044;-65
2023/01/25 10:23:52;;;;;;;13.32;6.53;;;2.70;83.40;;;;;;5089359;28;20056;-64
2023/01/25 10:26:26;;;;;;;13.55;6.25;;;2.70;83.40;;;;;;5089659;28;20121;-60
2023/01/25 10:29:00;;;;;;;11.57;5.72;;;2.70;83.30;;;;;;5086020;28;20047;-59
2023/01/25 10:31:36;;;;;;;12.50;6.38;;;2.70;83.30;;;;;;5088603;28;20615;-65
2023/01/25 10:34:14;;;;;;;13.02;6.40;;;2.70;83.10;;;;;;5070166;28;20071;-66
2023/01/25 10:36:42;;;;;;;13.65;6.97;;;2.70;83.30;;;;;;5088261;28;20048;-64
2023/01/25 10:39:10;;;;;;;12.05;6.25;;;2.60;83.30;;;;;;5088849;28;20036;-64
2023/01/25 10:41:41;;;;;;;12.98;6.85;;;2.70;83.30;;;;;;5090186;28;20092;-60
2023/01/25 10:44:23;;;;;;;13.13;6.38;;;2.80;83.20;;;;;;5087301;28;20055;-61
2023/01/25 10:46:57;;;;;;;11.50;6.22;;;2.80;83.20;;;;;;5087740;28;20083;-72
2023/01/25 10:49:29;;;;;;;11.70;6.13;;;2.90;83.00;;;;;;5081500;28;20054;-72
2023/01/25 10:51:56;;;;;;;10.82;5.78;;;2.80;82.80;;;;;;5088583;28;20056;-72
2023/01/25 10:54:24;;;;;;;10.77;5.90;;;2.80;82.80;;;;;;5087338;28;20082;-70
2023/01/25 10:56:52;;;;;;;12.93;6.25;;;2.80;82.80;;;;;;5085924;28;20048;-72
2023/01/25 10:59:24;;;;;;;14.50;7.22;;;2.70;82.80;;;;;;5086721;28;20052;-70
2023/01/25 11:01:51;;;;;;;12.65;7.03;;;2.80;82.90;;;;;;5088109;28;20044;-63
2023/01/25 11:04:30;;;;;;;13.30;6.32;;;2.70;82.80;;;;;;5087019;28;20060;-65
2023/01/25 11:06:57;;;;;;;12.63;6.57;;;2.80;82.90;;;;;;5086285;28;20399;-64
2023/01/25 11:09:36;;;;;;;13.13;6.47;;;2.80;82.80;;;;;;5088765;28;20044;-64
2023/01/25 11:12:16;;;;;;;11.80;5.78;;;2.80;82.80;;;;;;5087083;28;20077;-64
2023/01/25 11:14:43;;;;;;;13.00;6.47;;;2.80;82.90;;;;;;5085962;28;20048;-64
2023/01/25 11:17:23;;;;;;;13.82;6.70;;;2.90;82.80;;;;;;5087066;28;20051;-65
2023/01/25 11:20:07;;;;;;;12.02;5.72;;;2.90;82.80;;;;;;5088610;28;20060;-64
2023/01/25 11:22:34;;;;;;;16.25;7.28;;;2.90;82.90;;;;;;5087368;28;20055;-64
2023/01/25 11:25:27;;;;;;;13.85;6.78;;;2.90;82.90;;;;;;5087929;28;20059;-65
2023/01/25 11:28:11;;;;;;;15.15;6.47;;;2.90;82.70;;;;;;5087333;28;20044;-65
2023/01/25 11:30:38;;;;;;;15.80;6.93;;;2.90;82.80;;;;;;5087254;28;20058;-63
2023/01/25 11:33:10;;;;;;;14.25;7.07;;;2.90;82.80;;;;;;5086978;28;20045;-64
2023/01/25 11:35:48;;;;;;;14.90;6.60;;;2.90;82.80;;;;;;5087112;28;20502;-65
2023/01/25 11:38:21;;;;;;;10.65;6.75;;;2.90;82.70;;;;;;5087630;28;20068;-64
2023/01/25 11:40:54;;;;;;;15.50;7.10;;;2.90;82.50;;;;;;5088564;28;20040;-69
2023/01/25 11:43:38;;;;;;;14.38;7.00;;;2.90;82.60;;;;;;5086876;28;20394;-68
2023/01/25 11:46:21;;;;;;;12.40;6.35;;;2.90;82.70;;;;;;5087576;28;20072;-69
2023/01/25 11:49:03;;;;;;;13.80;6.68;;;2.90;82.60;;;;;;5086446;28;20048;-68
2023/01/25 11:51:38;;;;;;;13.38;6.75;;;2.90;82.60;;;;;;5086840;28;20097;-68
2023/01/25 11:54:39;;;;;;;12.88;6.45;;;2.90;82.50;;;;;;5087604;28;20125;-68
2023/01/25 11:57:16;;;;;;;11.65;5.75;;;2.90;82.60;;;;;;5082124;28;20453;-69
2023/01/25 12:00:00;;;;;;;10.85;5.95;;;2.80;82.50;;;;;;5085603;28;20425;-68
2023/01/25 12:03:03;;;;;;;12.02;5.95;;;2.90;82.60;;;;;;5083964;28;20138;-69
2023/01/25 12:05:44;;;;;;;13.55;6.32;;;2.80;82.70;;;;;;5061594;28;20055;-64
2023/01/25 12:08:32;;;;;;;11.82;5.88;;;2.90;82.60;;;;;;5087008;28;20040;-65
2023/01/25 12:11:06;;;;;;;11.95;6.00;;;2.90;82.60;;;;;;5087236;28;20060;-64
2023/01/25 12:13:46;;;;;;;14.02;6.78;;;2.90;82.60;;;;;;5087629;28;20048;-64
2023/01/25 12:16:40;;;;;;;14.27;6.55;;;2.90;82.50;;;;;;5087652;28;20036;-61
2023/01/25 12:19:30;;;;;;;15.65;6.45;;;2.90;82.60;;;;;;5086870;28;20044;-60
2023/01/25 12:22:18;;;;;;;12.30;6.43;;;2.90;82.50;;;;;;5090579;28;20044;-60
2023/01/25 12:24:55;;;;;;;10.35;6.28;;;2.90;82.60;;;;;;5091273;28;20044;-59
2023/01/25 12:27:34;;;;;;;13.23;6.55;;;2.90;82.50;;;;;;5090554;28;20134;-59
2023/01/25 12:30:11;;;;;;;13.98;7.20;;;3.00;82.50;;;;;;5091279;28;20068;-59
2023/01/25 12:32:45;;;;;;;13.43;6.90;;;3.00;82.40;;;;;;5090480;28;20040;-59
2023/01/25 12:35:24;;;;;;;12.63;7.15;;;2.90;82.50;;;;;;5084156;28;20105;-59
2023/01/25 12:37:57;;;;;;;13.18;6.68;;;3.00;82.40;;;;;;5091894;28;20514;-59
2023/01/25 12:40:34;;;;;;;11.63;6.55;;;2.90;82.50;;;;;;5088808;28;20048;-60
2023/01/25 12:43:02;;;;;;;13.52;7.03;;;3.00;82.40;;;;;;5088482;28;20079;-59
2023/01/25 12:45:33;;;;;;;14.07;7.32;;;3.00;82.40;;;;;;5087971;28;20392;-68
2023/01/25 12:48:11;;;;;;;13.25;6.90;;;2.90;82.40;;;;;;5091618;28;20063;-69
2023/01/25 12:50:42;;;;;;;13.55;7.45;;;2.90;82.40;;;;;;5086903;28;20044;-67
2023/01/25 12:53:17;;;;;;;14.45;7.18;;;2.90;82.50;;;;;;5089415;28;20051;-69
2023/01/25 12:55:45;;;;;;;16.20;6.88;;;2.90;82.40;;;;;;5091690;28;20051;-68
2023/01/25 12:58:17;;;;;;;14.10;7.45;;;3.00;82.40;;;;;;5088684;28;20421;-69
2023/01/25 13:00:52;;;;;;;13.13;6.80;;;3.00;82.20;;;;;;5090447;28;20052;-68
2023/01/25 13:03:29;;;;;;;14.77;6.88;;;3.00;82.30;;;;;;5089665;28;20049;-69
2023/01/25 13:06:01;;;;;;;14.80;7.22;;;2.90;82.40;;;;;;5091635;28;20612;-60
2023/01/25 13:08:42;;;;;;;13.85;7.03;;;2.90;82.50;;;;;;5090189;28;20047;-59